createdAt,value
2018-09-21T00:00:44.006Z,99.10
2018-09-21T00:03:12.727Z,98.80
2018-09-21T00:05:41.289Z,99.00
2018-09-21T00:08:09.853Z,99.20
2018-09-21T00:10:38.375Z,99.80
2018-09-21T00:13:06.914Z,99.90
2018-09-21T00:15:35.475Z,99.90
2018-09-21T00:18:04.039Z,99.90
2018-09-21T00:20:32.565Z,99.90
2018-09-21T00:23:01.091Z,99.90
2018-09-21T00:25:29.655Z,99.70
2018-09-21T00:27:58.171Z,99.60
2018-09-21T00:30:26.742Z,99.80
2018-09-21T00:32:55.361Z,99.60
2018-09-21T00:35:23.958Z,99.70
2018-09-21T00:37:52.538Z,99.70
2018-09-21T00:40:21.140Z,99.30
2018-09-21T00:42:49.695Z,98.70
2018-09-21T00:45:18.207Z,98.80
2018-09-21T00:47:46.787Z,99.30
2018-09-21T00:50:15.324Z,99.90
2018-09-21T00:52:43.965Z,99.90
2018-09-21T00:55:12.460Z,99.90
2018-09-21T00:57:41.005Z,99.90
2018-09-21T01:00:09.618Z,99.90
2018-09-21T01:02:38.141Z,99.90
2018-09-21T01:05:06.771Z,99.90
2018-09-21T01:07:35.262Z,99.90
2018-09-21T01:10:03.862Z,99.90
2018-09-21T01:12:32.378Z,99.90
2018-09-21T01:15:00.930Z,99.90
2018-09-21T01:17:30.113Z,99.90
2018-09-21T01:19:58.646Z,99.90
2018-09-21T01:22:27.268Z,99.90
2018-09-21T01:24:55.777Z,99.90
2018-09-21T01:27:24.291Z,99.90
2018-09-21T01:29:52.868Z,99.90
2018-09-21T01:32:21.454Z,99.90
2018-09-21T01:34:49.978Z,99.90
2018-09-21T01:37:18.574Z,99.90
2018-09-21T01:39:47.408Z,99.90
2018-09-21T01:42:15.994Z,99.90
2018-09-21T01:44:44.523Z,99.90
2018-09-21T01:47:13.132Z,99.90
2018-09-21T01:49:41.703Z,99.90
2018-09-21T01:52:10.326Z,99.90
2018-09-21T01:54:38.853Z,99.90
2018-09-21T01:57:07.423Z,99.90
2018-09-21T01:59:36.040Z,99.90
2018-09-21T02:02:04.600Z,99.90
2018-09-21T02:04:38.563Z,99.90
2018-09-21T02:07:08.678Z,99.90
2018-09-21T02:09:37.554Z,99.90
2018-09-21T02:12:06.187Z,99.90
2018-09-21T02:14:35.083Z,99.90
2018-09-21T02:17:03.840Z,99.90
2018-09-21T02:19:32.450Z,99.90
2018-09-21T02:22:01.265Z,99.90
2018-09-21T02:24:29.839Z,99.90
2018-09-21T02:26:58.384Z,99.90
2018-09-21T02:29:26.980Z,99.90
2018-09-21T02:31:55.500Z,99.90
2018-09-21T02:34:24.084Z,99.90
2018-09-21T02:36:52.609Z,99.90
2018-09-21T02:39:21.182Z,99.90
2018-09-21T02:41:49.865Z,99.90
2018-09-21T02:44:18.414Z,99.90
2018-09-21T02:46:46.966Z,99.90
2018-09-21T02:49:15.499Z,99.90
2018-09-21T02:51:44.032Z,99.90
2018-09-21T02:54:12.603Z,99.90
2018-09-21T02:56:41.947Z,99.90
2018-09-21T02:59:10.518Z,99.90
2018-09-21T03:01:39.088Z,99.90
2018-09-21T03:04:07.639Z,99.90
2018-09-21T03:06:36.197Z,99.90
2018-09-21T03:09:07.374Z,99.90
2018-09-21T03:11:36.179Z,99.90
2018-09-21T03:14:04.715Z,99.90
2018-09-21T03:16:33.266Z,99.90
2018-09-21T03:19:01.818Z,99.90
2018-09-21T03:21:30.374Z,99.90
2018-09-21T03:23:58.980Z,99.90
2018-09-21T03:26:27.649Z,99.90
2018-09-21T03:28:56.455Z,99.90
2018-09-21T03:31:24.983Z,99.90
2018-09-21T03:33:53.543Z,99.90
2018-09-21T03:36:22.108Z,99.90
2018-09-21T03:38:50.659Z,99.90
2018-09-21T03:41:19.206Z,99.90
2018-09-21T03:43:47.860Z,99.90
2018-09-21T03:46:16.418Z,99.90
2018-09-21T03:48:45.043Z,99.90
2018-09-21T03:51:13.629Z,99.90
2018-09-21T03:53:42.226Z,99.90
2018-09-21T03:56:10.977Z,99.90
2018-09-21T03:58:39.552Z,99.90
2018-09-21T04:01:08.200Z,99.90
2018-09-21T04:03:36.785Z,99.90
2018-09-21T04:06:05.385Z,99.90
2018-09-21T04:08:33.982Z,99.90
2018-09-21T04:11:02.535Z,99.90
2018-09-21T04:13:31.148Z,99.90
2018-09-21T04:15:59.654Z,99.90
2018-09-21T04:18:28.215Z,99.90
2018-09-21T04:20:56.796Z,99.90
2018-09-21T04:23:25.397Z,99.90
2018-09-21T04:25:54.287Z,99.90
2018-09-21T04:28:22.886Z,99.90
2018-09-21T04:30:51.370Z,99.90
2018-09-21T04:33:19.901Z,99.90
2018-09-21T04:35:48.457Z,99.90
2018-09-21T04:38:17.018Z,99.90
2018-09-21T04:40:45.584Z,99.90
2018-09-21T04:43:14.182Z,99.90
2018-09-21T04:45:42.810Z,99.90
2018-09-21T04:48:11.336Z,99.90
2018-09-21T04:50:40.001Z,99.90
2018-09-21T04:53:08.583Z,99.90
2018-09-21T04:55:37.129Z,99.90
2018-09-21T04:58:05.734Z,99.90
2018-09-21T05:00:34.265Z,99.90
2018-09-21T05:03:02.855Z,99.90
2018-09-21T05:05:31.502Z,99.90
2018-09-21T05:08:00.871Z,99.90
2018-09-21T05:10:29.474Z,99.90
2018-09-21T05:12:58.065Z,99.90
2018-09-21T05:15:26.615Z,99.90
2018-09-21T05:17:55.136Z,99.90
2018-09-21T05:20:23.705Z,99.90
2018-09-21T05:22:52.294Z,99.90
2018-09-21T05:25:21.854Z,99.90
2018-09-21T05:27:51.441Z,99.90
2018-09-21T05:30:19.999Z,99.90
2018-09-21T05:33:06.807Z,99.90
2018-09-21T05:35:35.604Z,99.90
2018-09-21T05:38:04.160Z,99.90
2018-09-21T05:40:32.787Z,99.90
2018-09-21T05:43:01.374Z,99.90
2018-09-21T05:45:30.311Z,99.90
2018-09-21T05:51:13.127Z,99.90
2018-09-21T05:53:41.711Z,99.90
2018-09-21T05:56:10.333Z,99.90
2018-09-21T05:58:38.910Z,99.90
2018-09-21T06:01:07.541Z,99.90
2018-09-21T06:03:36.199Z,99.90
2018-09-21T06:06:04.731Z,99.90
2018-09-21T06:08:33.333Z,99.90
2018-09-21T06:11:01.931Z,99.90
2018-09-21T06:13:30.566Z,99.90
2018-09-21T06:15:59.139Z,99.80
2018-09-21T06:18:27.762Z,99.60
2018-09-21T06:20:56.339Z,99.00
2018-09-21T06:23:24.895Z,98.60
2018-09-21T06:25:53.466Z,98.00
2018-09-21T06:28:22.806Z,97.50
2018-09-21T06:30:51.331Z,96.60
2018-09-21T06:33:19.854Z,95.50
2018-09-21T06:35:48.417Z,95.00
2018-09-21T06:38:23.288Z,95.00
2018-09-21T06:40:52.456Z,94.70
2018-09-21T06:43:22.092Z,94.70
2018-09-21T06:45:51.157Z,94.40
2018-09-21T06:48:20.543Z,94.30
2018-09-21T06:50:51.404Z,93.60
2018-09-21T06:53:19.970Z,92.00
2018-09-21T06:55:48.548Z,91.20
2018-09-21T06:58:17.249Z,90.30
2018-09-21T07:00:45.823Z,88.50
2018-09-21T07:03:14.406Z,84.90
2018-09-21T07:05:42.970Z,82.80
2018-09-21T07:08:11.591Z,80.30
2018-09-21T07:10:42.639Z,78.80
2018-09-21T07:13:11.327Z,76.50
2018-09-21T07:15:40.257Z,75.20
2018-09-21T07:18:09.131Z,65.60
2018-09-21T07:20:40.336Z,52.70
2018-09-21T07:23:09.711Z,45.10
2018-09-21T07:25:38.792Z,39.50
2018-09-21T07:28:07.526Z,36.00
2018-09-21T07:30:36.213Z,33.00
2018-09-21T07:33:06.633Z,30.80
2018-09-21T07:35:35.301Z,29.40
2018-09-21T07:38:03.975Z,27.90
2018-09-21T07:40:32.681Z,27.10
2018-09-21T07:43:01.908Z,26.50
2018-09-21T07:45:30.992Z,26.30
2018-09-21T07:47:59.642Z,26.20
2018-09-21T07:50:28.322Z,24.20
2018-09-21T07:53:06.712Z,22.80
2018-09-21T07:55:35.380Z,22.50
2018-09-21T07:58:04.036Z,21.90
2018-09-21T08:00:33.348Z,22.40
2018-09-21T08:03:01.985Z,22.80
2018-09-21T08:05:33.661Z,25.80
2018-09-21T08:08:03.509Z,29.60
2018-09-21T08:10:32.198Z,32.60
2018-09-21T08:13:01.399Z,33.30
2018-09-21T08:15:30.575Z,33.80
2018-09-21T08:17:59.109Z,32.80
2018-09-21T08:20:28.397Z,30.50
2018-09-21T08:22:57.104Z,29.30
2018-09-21T08:25:25.697Z,30.10
2018-09-21T08:27:54.333Z,30.70
2018-09-21T08:30:22.953Z,33.50
2018-09-21T08:32:51.663Z,36.80
2018-09-21T08:35:20.281Z,38.40
2018-09-21T08:37:48.850Z,40.20
2018-09-21T08:40:17.481Z,41.60
2018-09-21T08:42:46.319Z,41.30
2018-09-21T08:45:15.003Z,40.70
2018-09-21T08:47:43.615Z,39.90
2018-09-21T08:50:12.195Z,39.60
2018-09-21T08:52:40.822Z,38.70
2018-09-21T08:55:09.475Z,36.90
2018-09-21T08:57:38.138Z,36.70
2018-09-21T09:00:06.856Z,35.80
2018-09-21T09:02:35.436Z,33.20
2018-09-21T09:05:04.081Z,31.40
2018-09-21T09:07:32.622Z,26.70
2018-09-21T09:10:01.157Z,24.20
2018-09-21T09:12:29.850Z,22.10
2018-09-21T09:14:58.420Z,19.40
2018-09-21T09:17:26.989Z,18.60
2018-09-21T09:19:55.598Z,19.00
2018-09-21T09:22:24.219Z,19.20
2018-09-21T09:24:52.876Z,17.30
2018-09-21T09:27:21.452Z,16.10
2018-09-21T09:29:50.042Z,16.90
2018-09-21T09:32:18.567Z,20.10
2018-09-21T09:34:47.175Z,24.70
2018-09-21T09:37:15.791Z,27.80
2018-09-21T09:39:44.358Z,27.50
2018-09-21T09:42:12.902Z,28.20
2018-09-21T09:44:41.460Z,25.10
2018-09-21T09:47:10.008Z,26.50
2018-09-21T09:49:38.584Z,27.50
2018-09-21T09:52:07.527Z,28.70
2018-09-21T09:54:36.085Z,29.00
2018-09-21T09:57:04.640Z,29.10
2018-09-21T09:59:33.273Z,27.00
2018-09-21T10:02:01.909Z,25.20
2018-09-21T10:04:30.696Z,22.90
2018-09-21T10:06:59.253Z,21.80
2018-09-21T10:09:27.741Z,21.50
2018-09-21T10:11:56.549Z,20.90
2018-09-21T10:14:25.141Z,21.90
2018-09-21T10:16:53.714Z,24.40
2018-09-21T10:19:22.312Z,27.70
2018-09-21T10:21:50.838Z,31.20
2018-09-21T10:24:19.383Z,34.10
2018-09-21T10:26:47.986Z,35.50
2018-09-21T10:29:16.703Z,35.70
2018-09-21T10:31:45.396Z,35.90
2018-09-21T10:34:15.552Z,36.50
2018-09-21T10:36:44.156Z,37.20
2018-09-21T10:39:12.752Z,37.30
2018-09-21T10:44:15.711Z,38.30
2018-09-21T10:46:44.318Z,38.10
2018-09-21T10:49:13.010Z,37.90
2018-09-21T10:51:41.577Z,38.60
2018-09-21T10:54:10.187Z,37.90
2018-09-21T10:56:38.718Z,38.00
2018-09-21T10:59:07.287Z,38.70
2018-09-21T11:01:36.015Z,38.60
2018-09-21T11:04:05.052Z,37.10
2018-09-21T11:06:33.628Z,32.50
2018-09-21T11:09:02.308Z,29.20
2018-09-21T11:11:30.948Z,29.50
2018-09-21T11:13:59.557Z,30.20
2018-09-21T11:16:28.124Z,30.30
2018-09-21T11:18:56.786Z,33.00
2018-09-21T11:21:25.531Z,34.60
2018-09-21T11:23:54.184Z,36.10
2018-09-21T11:26:22.846Z,37.00
2018-09-21T11:28:51.462Z,37.90
2018-09-21T11:31:20.263Z,38.90
2018-09-21T11:33:48.868Z,38.90
2018-09-21T11:36:17.513Z,38.60
2018-09-21T11:38:46.051Z,38.10
2018-09-21T11:41:14.616Z,38.60
2018-09-21T11:43:43.204Z,39.00
2018-09-21T11:46:11.882Z,39.90
2018-09-21T11:48:40.429Z,40.10
2018-09-21T11:51:09.115Z,40.00
2018-09-21T11:53:37.713Z,40.40
2018-09-21T11:56:06.332Z,40.60
2018-09-21T11:58:34.881Z,40.90
2018-09-21T12:01:03.513Z,41.00
2018-09-21T12:03:32.111Z,41.10
2018-09-21T12:06:00.774Z,41.40
2018-09-21T12:08:29.394Z,41.70
2018-09-21T12:10:58.020Z,42.10
2018-09-21T12:13:26.608Z,41.70
2018-09-21T12:15:55.216Z,41.90
2018-09-21T12:18:23.793Z,42.10
2018-09-21T12:20:52.366Z,41.80
2018-09-21T12:23:20.946Z,41.30
2018-09-21T12:25:49.539Z,41.00
2018-09-21T12:28:18.169Z,40.50
2018-09-21T12:30:46.778Z,40.30
2018-09-21T12:33:15.345Z,40.40
2018-09-21T12:35:44.358Z,40.50
2018-09-21T12:38:12.965Z,40.90
2018-09-21T12:40:41.587Z,41.00
2018-09-21T12:43:10.185Z,40.70
2018-09-21T12:45:38.727Z,41.30
2018-09-21T12:48:07.327Z,42.40
2018-09-21T12:50:35.963Z,42.40
2018-09-21T12:53:04.559Z,42.50
2018-09-21T12:55:33.118Z,42.30
2018-09-21T12:58:02.973Z,42.90
2018-09-21T13:00:37.341Z,42.90
2018-09-21T13:03:08.107Z,42.30
2018-09-21T13:05:36.783Z,42.60
2018-09-21T13:08:05.460Z,42.50
2018-09-21T13:10:34.022Z,42.40
2018-09-21T13:13:02.573Z,42.70
2018-09-21T13:15:31.119Z,43.10
2018-09-21T13:17:59.701Z,43.10
2018-09-21T13:20:28.251Z,44.20
2018-09-21T13:22:56.849Z,44.30
2018-09-21T13:25:25.438Z,44.40
2018-09-21T13:27:53.910Z,44.80
2018-09-21T13:30:22.493Z,44.80
2018-09-21T13:32:51.058Z,44.90
2018-09-21T13:35:19.599Z,45.00
2018-09-21T13:37:48.164Z,45.00
2018-09-21T13:40:16.727Z,44.80
2018-09-21T13:42:45.330Z,44.60
2018-09-21T13:45:13.861Z,45.00
2018-09-21T13:47:42.429Z,44.80
2018-09-21T13:50:11.006Z,44.80
2018-09-21T13:52:39.581Z,44.60
2018-09-21T13:55:08.254Z,43.80
2018-09-21T13:57:36.936Z,43.30
2018-09-21T14:00:05.830Z,43.40
2018-09-21T14:02:34.637Z,42.60
2018-09-21T14:05:03.210Z,42.60
2018-09-21T14:07:31.762Z,42.70
2018-09-21T14:10:00.300Z,42.70
2018-09-21T14:12:28.910Z,42.80
2018-09-21T14:14:57.502Z,43.00
2018-09-21T14:17:26.070Z,43.00
2018-09-21T14:19:54.669Z,43.00
2018-09-21T14:22:23.258Z,42.80
2018-09-21T14:24:51.957Z,43.40
2018-09-21T14:27:20.577Z,43.40
2018-09-21T14:29:49.180Z,43.60
2018-09-21T14:32:17.730Z,43.70
2018-09-21T14:34:46.925Z,43.60
2018-09-21T14:37:15.433Z,43.80
2018-09-21T14:39:43.968Z,44.20
2018-09-21T14:42:16.718Z,44.50
2018-09-21T14:44:45.659Z,44.50
2018-09-21T14:47:14.190Z,44.40
2018-09-21T14:49:42.778Z,44.40
2018-09-21T14:52:11.486Z,44.30
2018-09-21T14:54:40.117Z,44.40
2018-09-21T14:57:08.716Z,44.40
2018-09-21T14:59:37.240Z,44.00
2018-09-21T15:02:06.178Z,44.00
2018-09-21T15:04:34.746Z,44.00
2018-09-21T15:07:03.297Z,44.00
2018-09-21T15:09:31.943Z,44.00
2018-09-21T15:12:00.517Z,44.20
2018-09-21T15:14:28.997Z,44.00
2018-09-21T15:16:57.653Z,43.80
2018-09-21T15:19:26.349Z,44.10
2018-09-21T15:21:55.030Z,43.80
2018-09-21T15:24:23.635Z,43.90
2018-09-21T15:26:52.166Z,44.10
2018-09-21T15:29:21.038Z,44.50
2018-09-21T15:31:49.551Z,44.70
2018-09-21T15:34:18.108Z,44.80
2018-09-21T15:36:46.717Z,45.30
2018-09-21T15:39:15.273Z,45.70
2018-09-21T15:41:43.857Z,45.60
2018-09-21T15:44:12.460Z,43.80
2018-09-21T15:46:41.010Z,43.20
2018-09-21T15:49:09.633Z,45.50
2018-09-21T15:51:38.317Z,50.50
2018-09-21T15:54:06.937Z,52.80
2018-09-21T15:56:35.421Z,54.60
2018-09-21T15:59:03.996Z,57.00
2018-09-21T16:01:32.517Z,58.80
2018-09-21T16:04:01.093Z,59.40
2018-09-21T16:06:33.177Z,59.10
2018-09-21T16:09:03.103Z,60.90
2018-09-21T16:11:31.627Z,62.30
2018-09-21T16:14:00.195Z,63.70
2018-09-21T16:16:28.747Z,63.10
2018-09-21T16:18:57.250Z,63.40
2018-09-21T16:21:25.821Z,64.20
2018-09-21T16:23:54.346Z,64.90
2018-09-21T16:26:22.992Z,64.50
2018-09-21T16:28:51.594Z,64.90
2018-09-21T16:31:20.217Z,65.50
2018-09-21T16:33:48.968Z,66.10
2018-09-21T16:36:17.497Z,67.30
2018-09-21T16:38:46.064Z,67.70
2018-09-21T16:41:14.830Z,67.60
2018-09-21T16:43:43.509Z,67.50
2018-09-21T16:46:12.101Z,67.40
2018-09-21T16:48:40.649Z,66.60
2018-09-21T16:51:09.263Z,62.30
2018-09-21T16:53:37.846Z,59.80
2018-09-21T16:56:06.632Z,59.60
2018-09-21T16:58:35.199Z,59.80
2018-09-21T17:01:03.823Z,59.70
2018-09-21T17:03:32.398Z,60.20
2018-09-21T17:06:00.927Z,60.60
2018-09-21T17:08:29.434Z,61.20
2018-09-21T17:10:58.135Z,61.20
2018-09-21T17:13:26.753Z,63.00
2018-09-21T17:15:55.365Z,64.30
2018-09-21T17:18:23.916Z,66.40
2018-09-21T17:20:53.264Z,66.30
2018-09-21T17:23:21.831Z,67.80
2018-09-21T17:25:50.449Z,71.80
2018-09-21T17:28:19.128Z,71.60
2018-09-21T17:30:47.719Z,73.70
2018-09-21T17:33:16.512Z,74.90
2018-09-21T17:35:45.018Z,78.10
2018-09-21T17:38:14.577Z,77.00
2018-09-21T17:40:43.258Z,76.80
2018-09-21T17:43:11.974Z,79.70
2018-09-21T17:45:40.661Z,80.70
2018-09-21T17:48:09.313Z,78.00
2018-09-21T17:50:37.872Z,79.90
2018-09-21T17:53:06.749Z,77.80
2018-09-21T17:55:35.271Z,78.00
2018-09-21T17:58:03.827Z,77.80
2018-09-21T18:00:32.468Z,77.30
2018-09-21T18:03:03.309Z,77.20
2018-09-21T18:05:32.049Z,77.10
2018-09-21T18:08:01.592Z,77.40
2018-09-21T18:10:30.285Z,76.50
2018-09-21T18:13:00.051Z,76.40
2018-09-21T18:15:28.591Z,78.40
2018-09-21T18:17:57.172Z,76.80
2018-09-21T18:20:25.783Z,76.40
2018-09-21T18:22:56.051Z,74.20
2018-09-21T18:25:26.732Z,74.60
2018-09-21T18:27:55.427Z,75.10
2018-09-21T18:30:24.281Z,75.70
2018-09-21T18:32:53.079Z,75.20
2018-09-21T18:35:21.742Z,75.40
2018-09-21T18:37:50.417Z,74.70
2018-09-21T18:40:19.117Z,75.30
2018-09-21T18:42:47.763Z,75.20
2018-09-21T18:45:17.009Z,75.70
2018-09-21T18:47:45.669Z,76.60
2018-09-21T18:50:14.397Z,76.10
2018-09-21T18:52:42.929Z,75.90
2018-09-21T18:55:11.601Z,75.00
2018-09-21T18:57:40.175Z,75.70
2018-09-21T19:00:08.829Z,76.30
2018-09-21T19:02:37.483Z,76.00
2018-09-21T19:05:06.066Z,75.90
2018-09-21T19:07:34.747Z,74.80
2018-09-21T19:10:03.674Z,74.30
2018-09-21T19:12:33.466Z,74.10
2018-09-21T19:15:03.880Z,74.00
2018-09-21T19:17:32.590Z,73.20
2018-09-21T19:20:01.098Z,72.20
2018-09-21T19:22:29.630Z,70.80
2018-09-21T19:24:58.252Z,70.60
2018-09-21T19:27:27.878Z,70.10
2018-09-21T19:29:57.540Z,70.00
2018-09-21T19:32:26.314Z,70.10
2018-09-21T19:34:54.832Z,70.10
2018-09-21T19:37:23.397Z,69.90
2018-09-21T19:39:51.950Z,69.30
2018-09-21T19:42:20.678Z,69.20
2018-09-21T19:44:49.289Z,69.50
2018-09-21T19:47:17.839Z,69.10
2018-09-21T19:49:46.430Z,68.80
2018-09-21T19:52:15.141Z,68.10
2018-09-21T19:54:43.764Z,68.00
2018-09-21T19:57:12.607Z,68.00
2018-09-21T19:59:41.127Z,67.60
2018-09-21T20:02:09.777Z,67.80
2018-09-21T20:04:38.302Z,67.60
2018-09-21T20:07:06.940Z,67.50
2018-09-21T20:09:35.463Z,67.60
2018-09-21T20:12:04.088Z,67.50
2018-09-21T20:14:32.650Z,67.20
2018-09-21T20:17:01.208Z,67.20
2018-09-21T20:19:29.770Z,67.10
2018-09-21T20:21:59.645Z,66.70
2018-09-21T20:24:28.182Z,66.40
2018-09-21T20:26:56.770Z,66.20
2018-09-21T20:29:25.336Z,66.00
2018-09-21T20:31:59.276Z,65.60
2018-09-21T20:34:27.798Z,65.60
2018-09-21T20:36:56.391Z,64.70
2018-09-21T20:39:24.949Z,65.00
2018-09-21T20:41:53.522Z,64.40
2018-09-21T20:44:22.038Z,64.70
2018-09-21T20:46:50.653Z,64.10
2018-09-21T20:49:19.234Z,63.50
2018-09-21T20:51:47.786Z,62.60
2018-09-21T20:54:16.313Z,62.40
2018-09-21T20:56:44.887Z,61.70
2018-09-21T20:59:13.470Z,60.50
2018-09-21T21:01:42.135Z,60.20
2018-09-21T21:04:10.671Z,59.50
2018-09-21T21:07:42.183Z,59.10
2018-09-21T21:10:10.766Z,59.00
2018-09-21T21:12:39.376Z,58.80
2018-09-21T21:15:08.049Z,58.80
2018-09-21T21:17:36.659Z,59.50
2018-09-21T21:20:05.466Z,58.90
2018-09-21T21:22:35.208Z,59.10
2018-09-21T21:25:03.802Z,59.10
2018-09-21T21:27:33.145Z,59.30
2018-09-21T21:30:01.715Z,59.20
2018-09-21T21:32:30.268Z,59.50
2018-09-21T21:34:58.852Z,59.30
2018-09-21T21:37:27.426Z,59.40
2018-09-21T21:39:56.244Z,59.10
2018-09-21T21:42:24.806Z,59.00
2018-09-21T21:44:53.382Z,58.70
2018-09-21T21:47:22.141Z,58.70
2018-09-21T21:49:50.952Z,58.70
2018-09-21T21:52:19.733Z,58.50
2018-09-21T21:54:48.316Z,58.80
2018-09-21T21:57:16.876Z,59.00
2018-09-21T21:59:45.815Z,59.00
2018-09-21T22:02:14.373Z,59.10
2018-09-21T22:04:43.163Z,59.20
2018-09-21T22:07:12.676Z,59.50
2018-09-21T22:09:41.671Z,59.20
2018-09-21T22:12:15.496Z,59.20
2018-09-21T22:14:44.119Z,59.50
2018-09-21T22:17:12.710Z,59.60
2018-09-21T22:19:41.954Z,59.60
2018-09-21T22:22:10.543Z,59.70
2018-09-21T22:24:39.114Z,59.80
2018-09-21T22:27:07.711Z,59.80
2018-09-21T22:29:36.283Z,59.80
2018-09-21T22:32:05.184Z,59.90
2018-09-21T22:34:33.751Z,60.10
2018-09-21T22:37:02.301Z,60.30
2018-09-21T22:39:30.891Z,60.30
2018-09-21T22:41:59.487Z,60.60
2018-09-21T22:44:28.046Z,60.60
2018-09-21T22:46:56.576Z,60.30
2018-09-21T22:49:25.788Z,60.50
2018-09-21T22:51:54.654Z,60.70
2018-09-21T22:54:23.218Z,61.00
2018-09-21T22:56:51.834Z,60.90
2018-09-21T22:59:20.382Z,60.10
2018-09-21T23:01:48.997Z,60.10
2018-09-21T23:04:17.545Z,60.40
2018-09-21T23:06:46.064Z,60.60
2018-09-21T23:09:14.649Z,60.60
2018-09-21T23:11:45.585Z,60.70
2018-09-21T23:14:14.187Z,61.00
2018-09-21T23:16:42.707Z,61.20
2018-09-21T23:19:11.289Z,61.50
2018-09-21T23:21:39.935Z,60.30
2018-09-21T23:24:08.559Z,60.80
2018-09-21T23:26:37.074Z,62.00
2018-09-21T23:29:05.704Z,62.10
2018-09-21T23:31:34.338Z,62.00
2018-09-21T23:34:02.878Z,64.00
2018-09-21T23:36:31.422Z,64.80
2018-09-21T23:39:00.419Z,66.60
2018-09-21T23:41:29.287Z,68.40
2018-09-21T23:43:57.815Z,69.30
2018-09-21T23:46:26.438Z,69.80
2018-09-21T23:48:55.004Z,70.60
2018-09-21T23:51:23.526Z,70.70
2018-09-21T23:53:52.119Z,71.00
2018-09-21T23:56:20.647Z,71.80
2018-09-21T23:58:49.380Z,72.60
